Flight Track Log - Related Links

Times and Time Zones

All times are in EDT time to prevent confusion due to time zone crossing. See the N405SP flight status page for this flight to view local times or setup timezone preferences in your user account.

Time Position Orientation Groundspeed Altitude Reporting Facility
EDT Latitude Longitude Course Direction KTS MPH feet Rate Location/Type
Fri 10:07:34 AM 41.5014 -82.2689 314° West 109 125 2,500  Level Cleveland Center
Fri 10:08:59 AM 41.4986 -82.3242 266° West 110 127 2,700 98 Climbing Cleveland Center
Fri 10:09:36 AM 41.5003 -82.3519 275° West 107 123 2,700 -49 Level Cleveland Center
Fri 10:11:01 AM 41.5014 -82.4047 272° West 110 127 2,600  Descending Cleveland Center
Fri 10:11:43 AM 41.5031 -82.4381 274° West 110 127 2,700 37 Climbing Cleveland Center
Fri 10:13:00 AM 41.8633 -83.2425 314° West  Level Estimated
Fri 10:13:00 AM 41.5120 -82.4773 287° West  Level FlightAware Approximate
Fri 10:13:45 AM 41.5036 -82.5211 287° West 115 132 2,700  Level Cleveland Center
Fri 10:14:46 AM 41.5072 -82.5628 277° West 113 130 2,900 50 Climbing Cleveland Center
Fri 10:15:46 AM 41.5128 -82.6019 281° West 111 128 2,800 -50 Descending Cleveland Center
Fri 10:16:47 AM 41.5225 -82.6439 287° West 112 129 2,800 -94 Level Cleveland Center
Fri 10:17:54 AM 41.5278 -82.6911 279° West 116 133 2,600 -157 Descending Cleveland Center
Fri 10:18:42 AM 41.5314 -82.7272 278° West 116 133 2,500  Descending Cleveland Center
Fri 10:19:49 AM 41.5347 -82.7717 276° West 113 130 2,600  Climbing Cleveland Center
Fri 10:20:50 AM 41.5381 -82.8164 276° West 117 135 2,500 -49 Descending Cleveland Center
Fri 10:21:51 AM 41.5392 -82.8581 272° West 116 133 2,500 -49 Level Cleveland Center
Fri 10:22:52 AM 41.5403 -82.9025 272° West 111 128 2,400 69 Descending Cleveland Center
Fri 10:24:00 AM 41.5624 -82.9235 325° Northwest  Level FlightAware Approximate
Fri 10:29:05 AM 41.6089 -83.1186 325° Northwest 102 117 3,000  Level Cleveland Center
Fri 10:29:54 AM 41.6292 -83.1389 323° Northwest 110 127 3,000 33 Level Cleveland Center
Fri 10:31:00 AM 41.6989 -83.0534 325° Northwest  Level FlightAware Approximate
Fri 10:32:00 AM 41.7184 -83.0720 325° Northwest  Level FlightAware Approximate
Fri 10:32:07 AM 41.6825 -83.1828 328° Northwest 103 119 3,100  Level Cleveland Center
Fri 10:33:00 AM 41.7379 -83.0906 325° Northwest  Level FlightAware Approximate
Fri 10:33:08 AM 41.7047 -83.2058 322° Northwest 106 122 3,000  Level Cleveland Center
Fri 10:34:00 AM 41.7574 -83.1092 325° Northwest  Level FlightAware Approximate
Fri 10:34:58 AM 41.7586 -83.2222 347° North 112 129 3,000  Level Cleveland Center
Fri 10:37:00 AM 41.8158 -83.2719 327° Northwest 114 131 2,900 -62 Descending Cleveland Center
Fri 10:38:13 AM 41.8422 -83.3064 316° Northwest 109 125 2,800 49 Descending Cleveland Center
Fri 10:39:02 AM 41.8603 -83.3267 320° Northwest 106 122 3,000 110 Climbing Cleveland Center
Fri 10:40:02 AM 41.8806 -83.3583 311° West 107 123 3,000 43 Level Cleveland Center
Fri 10:41:21 AM 41.9111 -83.3903 322° Northwest 111 128 3,100 -47 Climbing Cleveland Center
Fri 10:42:10 AM 41.9314 -83.4106 323° Northwest 112 129 2,900 -273 Descending Cleveland Center
Fri 10:43:11 AM 41.9556 -83.4397 318° Northwest 115 132 2,600 -148 Descending Cleveland Center
Fri 10:44:12 AM 41.9800 -83.4658 322° Northwest 107 123 2,600 -49 Level Cleveland Center
Fri 10:45:13 AM 42.0044 -83.4922 321° Northwest 111 128 2,500 -47 Descending Cleveland Center
Fri 10:46:20 AM 42.0286 -83.5183 321° Northwest 110 127 2,500 -49 Level Cleveland Center
Fri 10:47:15 AM 42.0489 -83.5472 313° West 108 124 2,400 49 Descending Cleveland Center
Fri 10:48:22 AM 42.0772 -83.5739 325° Northwest 112 129 2,600 98 Climbing Cleveland Center
Fri 10:49:17 AM 42.0997 -83.5944 326° Northwest 112 129 2,600 -49 Level Cleveland Center
Fri 10:50:24 AM 42.1261 -83.6208 323° Northwest 109 125 2,500 -141 Descending Cleveland Center
Fri 10:51:25 AM 42.1506 -83.6472 321° Northwest 118 136 2,300 -197 Descending Cleveland Center
Fri 10:53:00 AM 42.1788 -83.6788 323° Northwest  Level FlightAware Approximate

Login

Don't have an account? Register now (free) for customized features, flight alerts, and more!